Time;durP1;ratioP1;P1;durP2;ratioP2;P2;SDS_P1;SDS_P2;PMS_P1;PMS_P2;Temp;Humidity;BMP_temperature;BMP_pressure;BME280_temperature;BME280_humidity;BME280_pressure;Samples;Min_cycle;Max_cycle;Signal;HPM_P1;HPM_P2
2021/05/16 00:01:24;;;;;;;14.48;9.45;;;;;;;6.67;91.84;99581.94;5061324;28;20048;-83
2021/05/16 00:03:56;;;;;;;12.75;9.65;;;;;;;6.62;91.70;99583.59;5057237;28;20045;-84
2021/05/16 00:06:29;;;;;;;12.45;8.98;;;;;;;6.58;91.18;99579.03;5060816;28;20047;-83
2021/05/16 00:09:03;;;;;;;13.32;8.13;;;;;;;6.55;91.22;99566.91;5071716;28;20049;-84
2021/05/16 00:11:36;;;;;;;11.80;8.77;;;;;;;6.53;91.17;99565.56;5057366;28;20057;-83
2021/05/16 00:14:04;;;;;;;12.23;8.90;;;;;;;6.55;91.41;99564.19;5063446;28;20048;-83
2021/05/16 00:16:42;;;;;;;11.98;8.82;;;;;;;6.58;91.89;99565.53;5068950;28;20435;-84
2021/05/16 00:19:14;;;;;;;;;;;;;;;6.64;91.88;99569.81;5058644;28;20044;-83
2021/05/16 00:21:47;;;;;;;11.73;7.80;;;;;;;6.66;91.36;99556.81;5072467;28;19921;-82
2021/05/16 00:24:21;;;;;;;11.90;7.53;;;;;;;6.74;90.81;99553.53;5081977;28;20052;-83
2021/05/16 00:26:49;;;;;;;14.93;7.80;;;;;;;6.78;90.64;99557.28;5063124;28;20056;-84
2021/05/16 00:29:22;;;;;;;19.00;7.90;;;;;;;6.78;90.64;99542.94;5054919;28;20059;-84
2021/05/16 00:31:55;;;;;;;9.73;7.35;;;;;;;6.90;90.69;99558.81;5071945;28;20056;-84
2021/05/16 00:34:22;;;;;;;12.48;7.28;;;;;;;6.90;90.26;99558.81;5058970;28;20056;-83
2021/05/16 00:36:55;;;;;;;11.55;7.25;;;;;;;6.76;91.03;99542.44;5056128;28;20044;-84
2021/05/16 00:39:24;;;;;;;12.30;7.43;;;;;;;6.81;91.10;99553.22;5060589;28;20048;-83
2021/05/16 00:41:58;;;;;;;12.70;7.88;;;;;;;6.86;91.00;99561.25;5069934;27;20053;-84
2021/05/16 00:44:30;;;;;;;14.27;8.32;;;;;;;6.90;91.43;99556.91;5055735;28;20485;-86
2021/05/16 00:47:03;;;;;;;12.77;8.02;;;;;;;6.91;91.33;99553.13;5067226;28;20048;-85
2021/05/16 00:49:36;;;;;;;10.30;7.07;;;;;;;6.97;90.55;99549.28;5070157;28;20049;-85
2021/05/16 00:52:08;;;;;;;10.55;7.50;;;;;;;6.98;90.78;99550.88;5051882;28;20429;-85
2021/05/16 00:54:42;;;;;;;10.70;7.85;;;;;;;6.96;91.50;99544.13;5065924;28;20055;-86
2021/05/16 00:57:15;;;;;;;12.05;7.53;;;;;;;6.96;91.01;99539.56;5064989;28;20048;-85
2021/05/16 00:59:43;;;;;;;;;;;;;;;6.95;91.14;99540.63;5053800;28;20060;-86
2021/05/16 01:02:19;;;;;;;14.43;8.75;;;;;;;6.83;91.26;99534.78;5051983;28;20266;-85
2021/05/16 01:04:52;;;;;;;10.30;7.75;;;;;;;6.94;91.05;99541.72;5079241;28;20049;-85
2021/05/16 01:07:21;;;;;;;11.18;8.13;;;;;;;6.87;90.82;99524.22;5065749;28;20049;-85
2021/05/16 01:09:55;;;;;;;11.45;7.72;;;;;;;6.90;90.75;99535.25;5059986;28;20036;-84
2021/05/16 01:12:38;;;;;;;15.32;7.93;;;;;;;6.88;90.85;99537.47;5065124;28;20041;-84
2021/05/16 01:15:14;;;;;;;10.93;7.88;;;;;;;6.81;91.57;99529.66;5067288;28;20048;-84
2021/05/16 01:17:49;;;;;;;10.55;6.93;;;;;;;6.89;90.69;99533.66;5060964;28;20052;-84
2021/05/16 01:20:26;;;;;;;9.30;6.80;;;;;;;6.90;90.32;99540.69;5072233;28;20055;-84
2021/05/16 01:23:04;;;;;;;9.73;6.22;;;;;;;6.88;90.73;99528.56;5051936;28;20524;-84
2021/05/16 01:25:34;;;;;;;14.23;6.80;;;;;;;6.89;90.25;99533.66;5067428;28;20055;-84
2021/05/16 01:28:07;;;;;;;9.70;6.20;;;;;;;6.79;90.06;99523.75;5054883;28;20056;-84
2021/05/16 01:30:41;;;;;;;9.05;6.05;;;;;;;6.84;89.95;99528.31;5054654;28;20433;-84
2021/05/16 01:33:15;;;;;;;10.43;6.32;;;;;;;6.71;90.53;99528.94;5058225;28;20484;-85
2021/05/16 01:35:54;;;;;;;10.07;7.15;;;;;;;6.69;90.96;99533.84;5061690;28;20055;-85
2021/05/16 01:38:28;;;;;;;9.23;6.53;;;;;;;6.64;90.66;99534.66;5082251;28;20040;-85
2021/05/16 01:41:00;;;;;;;10.18;6.88;;;;;;;6.67;91.14;99527.88;5073022;28;20562;-84
2021/05/16 01:43:35;;;;;;;8.25;6.22;;;;;;;6.70;90.26;99530.00;5054145;28;20063;-82
2021/05/16 01:46:07;;;;;;;9.32;6.30;;;;;;;6.68;90.11;99526.81;5057280;28;20049;-83
2021/05/16 01:48:40;;;;;;;11.65;6.50;;;;;;;6.65;90.81;99528.16;5077998;28;20047;-84
2021/05/16 01:51:14;;;;;;;11.32;6.40;;;;;;;6.66;90.46;99529.78;5072688;28;20052;-84
2021/05/16 01:53:49;;;;;;;10.85;6.90;;;;;;;6.63;91.01;99525.75;5061670;28;20059;-84
2021/05/16 01:56:23;;;;;;;11.18;6.95;;;;;;;6.51;91.34;99519.91;5056677;28;20404;-84
2021/05/16 01:58:57;;;;;;;11.90;7.07;;;;;;;6.62;91.14;99543.06;5052552;28;20057;-84
2021/05/16 02:01:34;;;;;;;14.50;7.57;;;;;;;6.60;91.03;99531.72;5061271;28;20059;-85
2021/05/16 02:04:10;;;;;;;9.52;6.45;;;;;;;6.70;91.13;99543.53;5077696;28;20052;-84
2021/05/16 02:06:40;;;;;;;13.57;6.70;;;;;;;6.73;91.20;99532.19;5068687;28;20049;-85
2021/05/16 02:09:14;;;;;;;9.35;6.72;;;;;;;6.75;90.80;99533.50;5073020;28;20048;-84
2021/05/16 02:11:42;;;;;;;12.93;7.13;;;;;;;6.68;90.64;99530.31;5064246;28;20059;-84
2021/05/16 02:14:23;;;;;;;13.60;7.20;;;;;;;6.76;90.41;99537.81;5060312;28;20405;-83
2021/05/16 02:16:51;;;;;;;10.93;7.45;;;;;;;6.83;90.53;99531.28;5070920;28;20045;-84
2021/05/16 02:19:24;;;;;;;11.75;8.23;;;;;;;6.75;90.62;99532.69;5062768;28;20048;-82
2021/05/16 02:21:58;;;;;;;12.95;7.32;;;;;;;6.82;90.61;99535.88;5063241;28;20049;-83
2021/05/16 02:24:38;;;;;;;11.20;7.18;;;;;;;6.79;90.24;99529.16;5060851;28;20045;-83
2021/05/16 02:27:10;;;;;;;12.68;7.10;;;;;;;6.78;89.77;99522.13;5067188;28;20812;-84
2021/05/16 02:29:48;;;;;;;10.77;6.95;;;;;;;6.80;90.23;99540.78;5072962;28;20056;-85
2021/05/16 02:32:22;;;;;;;10.57;6.78;;;;;;;6.75;90.35;99540.81;5068648;28;20051;-84
2021/05/16 02:34:59;;;;;;;10.88;6.60;;;;;;;6.76;90.32;99534.31;5078082;28;20041;-84
2021/05/16 02:37:46;;;;;;;10.95;6.95;;;;;;;6.68;90.61;99532.22;5079309;28;20049;-85
2021/05/16 02:40:20;;;;;;;13.00;7.38;;;;;;;6.70;90.72;99524.59;5076590;28;20512;-84
2021/05/16 02:42:53;;;;;;;14.50;7.25;;;;;;;6.77;90.64;99523.22;5067838;28;20052;-84
2021/05/16 02:45:28;;;;;;;14.35;7.68;;;;;;;6.71;90.75;99510.00;5061645;28;20056;-83
2021/05/16 02:48:07;;;;;;;9.23;6.95;;;;;;;6.79;89.92;99520.22;5075353;28;20049;-84
2021/05/16 02:50:43;;;;;;;9.57;7.03;;;;;;;6.78;90.56;99524.00;5060921;28;20052;-83
2021/05/16 02:53:23;;;;;;;10.07;6.53;;;;;;;6.75;90.67;99528.09;5065798;28;20033;-84
2021/05/16 02:56:02;;;;;;;10.68;7.43;;;;;;;6.75;90.79;99522.69;5077128;27;20045;-84
2021/05/16 02:58:30;;;;;;;11.60;7.07;;;;;;;6.69;90.50;99513.00;5081575;28;20056;-84
2021/05/16 03:01:04;;;;;;;12.88;7.47;;;;;;;6.75;91.19;99527.28;5081509;28;20049;-84
2021/05/16 03:03:37;;;;;;;14.45;7.25;;;;;;;6.72;91.02;99534.06;5061752;28;20047;-84
2021/05/16 03:06:13;;;;;;;12.95;7.60;;;;;;;6.76;90.71;99534.31;5061703;28;20052;-83
2021/05/16 03:08:46;;;;;;;10.50;7.30;;;;;;;6.70;90.80;99527.31;5082351;28;20064;-84
2021/05/16 03:11:26;;;;;;;11.10;8.00;;;;;;;6.71;91.06;99528.94;5066471;28;20060;-84
2021/05/16 03:13:54;;;;;;;9.77;7.03;;;;;;;6.78;90.04;99527.53;5058401;28;20056;-84
2021/05/16 03:16:31;;;;;;;11.23;7.13;;;;;;;6.75;90.45;99530.81;5074105;28;20056;-84
2021/05/16 03:19:04;;;;;;;10.73;7.38;;;;;;;6.73;90.90;99532.19;5058778;28;20041;-84
2021/05/16 03:21:45;;;;;;;13.35;7.85;;;;;;;6.71;90.84;99529.75;5063121;28;20033;-84
2021/05/16 03:24:15;;;;;;;14.40;7.90;;;;;;;6.72;90.97;99525.16;5057796;28;20049;-83
2021/05/16 03:26:50;;;;;;;11.68;7.22;;;;;;;6.72;90.93;99530.56;5066032;28;20053;-84
2021/05/16 03:29:23;;;;;;;14.57;7.80;;;;;;;6.71;90.69;99534.34;5059849;28;20492;-84
2021/05/16 03:31:51;;;;;;;10.75;7.75;;;;;;;6.76;90.96;99526.19;5081208;28;20060;-83
2021/05/16 03:34:19;;;;;;;11.30;6.93;;;;;;;6.74;90.62;99531.06;5065892;28;20409;-84
2021/05/16 03:36:52;;;;;;;11.38;7.85;;;;;;;6.71;90.87;99523.53;5061342;28;20044;-84
2021/05/16 03:39:20;;;;;;;10.25;7.55;;;;;;;6.78;90.65;99530.25;5059113;28;20111;-84
2021/05/16 03:41:55;;;;;;;11.77;7.63;;;;;;;6.77;90.77;99533.22;5057074;28;20044;-83
2021/05/16 03:44:28;;;;;;;12.25;7.57;;;;;;;6.79;90.77;99533.75;5060797;28;20515;-84
2021/05/16 03:47:01;;;;;;;12.07;6.97;;;;;;;6.87;90.44;99530.44;5079343;27;20053;-84
2021/05/16 03:49:34;;;;;;;10.60;7.55;;;;;;;6.80;90.33;99530.75;5060988;28;20488;-84
2021/05/16 03:52:07;;;;;;;12.73;8.80;;;;;;;6.85;91.26;99523.69;5058847;28;20044;-85
2021/05/16 03:54:34;;;;;;;11.32;6.97;;;;;;;6.84;90.31;99520.19;5078043;28;20053;-84
2021/05/16 03:57:08;;;;;;;15.13;7.90;;;;;;;6.83;90.33;99528.59;5080950;28;20057;-84
2021/05/16 03:59:41;;;;;;;11.00;8.05;;;;;;;6.95;90.59;99526.31;5077580;28;20060;-84
2021/05/16 04:02:13;;;;;;;15.35;7.50;;;;;;;6.96;90.43;99528.75;5051976;28;20056;-83
2021/05/16 04:04:46;;;;;;;10.77;6.68;;;;;;;6.97;90.23;99529.53;5065295;28;20048;-84
2021/05/16 04:07:19;;;;;;;10.23;7.35;;;;;;;6.93;89.97;99523.91;5061166;28;20044;-84
2021/05/16 04:09:52;;;;;;;11.27;6.97;;;;;;;7.02;90.24;99534.09;5086333;27;20052;-84
2021/05/16 04:12:25;;;;;;;12.10;7.95;;;;;;;6.95;90.41;99535.22;5062999;28;20587;-84
2021/05/16 04:14:58;;;;;;;9.80;6.95;;;;;;;7.00;90.38;99537.06;5061131;28;20049;-83
2021/05/16 04:17:31;;;;;;;11.20;7.22;;;;;;;6.88;90.74;99531.25;5064442;28;20044;-83
2021/05/16 04:20:05;;;;;;;10.23;7.40;;;;;;;6.97;90.56;99541.19;5061583;28;20482;-84
2021/05/16 04:22:38;;;;;;;14.00;7.28;;;;;;;6.90;90.72;99542.59;5057346;28;20508;-84
2021/05/16 04:25:12;;;;;;;9.85;7.03;;;;;;;6.89;90.44;99530.97;5071136;28;20507;-84
2021/05/16 04:27:45;;;;;;;11.32;7.68;;;;;;;6.91;90.42;99520.66;5058625;28;20060;-83
2021/05/16 04:30:14;;;;;;;12.23;7.93;;;;;;;7.06;89.96;99535.16;5061519;28;20052;-84
2021/05/16 04:32:46;;;;;;;9.68;7.20;;;;;;;7.09;90.13;99527.25;5076035;28;20481;-83
2021/05/16 04:35:19;;;;;;;11.13;6.97;;;;;;;7.21;90.22;99537.72;5066961;28;20790;-84
2021/05/16 04:37:52;;;;;;;12.02;7.00;;;;;;;7.25;90.08;99535.22;5057442;28;20033;-84
2021/05/16 04:40:25;;;;;;;10.27;6.97;;;;;;;7.31;90.05;99528.69;5060677;28;20048;-84
2021/05/16 04:42:58;;;;;;;12.15;7.18;;;;;;;7.32;90.50;99533.81;5065094;28;20041;-84
2021/05/16 04:45:31;;;;;;;10.40;7.80;;;;;;;7.41;91.14;99523.16;5056824;28;20053;-84
2021/05/16 04:48:04;;;;;;;10.23;7.45;;;;;;;7.54;89.90;99529.81;5055235;28;20044;-84
2021/05/16 04:50:32;;;;;;;11.95;7.72;;;;;;;7.60;90.13;99522.44;5056760;28;20398;-84
2021/05/16 04:53:05;;;;;;;11.02;7.38;;;;;;;7.74;89.72;99528.75;5056098;28;20040;-84
2021/05/16 04:55:33;;;;;;;10.52;7.30;;;;;;;7.86;89.75;99538.34;5058165;28;20602;-84
2021/05/16 04:58:07;;;;;;;10.88;7.18;;;;;;;7.94;89.57;99540.41;5081040;28;20497;-85
2021/05/16 05:00:40;;;;;;;12.07;7.25;;;;;;;8.15;88.78;99538.28;5052967;28;20060;-85
2021/05/16 05:03:13;;;;;;;10.25;6.47;;;;;;;8.29;89.08;99541.06;5055606;28;20059;-84
2021/05/16 05:05:46;;;;;;;9.50;6.85;;;;;;;8.96;86.59;99534.63;5077296;28;20045;-84
2021/05/16 05:08:18;;;;;;;8.32;5.65;;;;;;;9.70;83.00;99531.94;5057705;28;20033;-85
2021/05/16 05:10:51;;;;;;;7.22;4.97;;;;;;;9.28;85.22;99538.44;5078277;27;20060;-84
2021/05/16 05:13:25;;;;;;;6.88;4.70;;;;;;;8.77;85.95;99540.91;5083166;28;20056;-84
2021/05/16 05:15:58;;;;;;;10.25;4.82;;;;;;;8.57;86.96;99538.53;5053767;28;20512;-85
2021/05/16 05:18:32;;;;;;;7.55;4.88;;;;;;;8.56;88.20;99547.75;5058386;28;20389;-85
2021/05/16 05:21:07;;;;;;;9.07;5.82;;;;;;;8.46;87.83;99543.28;5059204;28;20053;-84
2021/05/16 05:23:35;;;;;;;7.70;5.53;;;;;;;8.42;88.72;99548.44;5057135;28;20061;-84
2021/05/16 05:26:08;;;;;;;9.32;6.00;;;;;;;8.38;89.12;99538.50;5079798;28;20045;-85
2021/05/16 05:28:41;;;;;;;10.13;5.82;;;;;;;8.38;89.19;99543.91;5067023;28;20068;-85
2021/05/16 05:31:15;;;;;;;10.68;6.50;;;;;;;8.29;88.95;99546.50;5075393;28;20048;-85
2021/05/16 05:33:48;;;;;;;7.20;5.47;;;;;;;8.33;89.09;99542.88;5061885;28;20056;-84
2021/05/16 05:36:21;;;;;;;10.73;6.38;;;;;;;8.25;89.67;99530.00;5064903;28;20381;-84
2021/05/16 05:38:48;;;;;;;;;;;;;;;8.34;88.91;99536.38;5060271;28;20040;-85
2021/05/16 05:41:21;;;;;;;8.55;5.50;;;;;;;8.43;89.08;99543.84;5063227;28;19932;-85
2021/05/16 05:43:54;;;;;;;11.10;7.25;;;;;;;8.43;89.78;99538.44;5063760;28;20472;-83
2021/05/16 05:46:30;;;;;;;10.60;7.05;;;;;;;8.42;89.31;99526.75;5064217;28;20068;-84
2021/05/16 05:48:57;;;;;;;8.32;6.28;;;;;;;8.57;88.89;99536.59;5076945;28;20059;-84
2021/05/16 05:51:30;;;;;;;11.00;6.03;;;;;;;8.48;89.50;99531.06;5068587;28;20061;-84
2021/05/16 05:54:03;;;;;;;13.00;6.82;;;;;;;8.53;88.68;99529.38;5072466;28;20056;-82
2021/05/16 05:56:36;;;;;;;13.52;6.90;;;;;;;8.68;89.64;99537.25;5059988;28;20040;-84
2021/05/16 05:59:11;;;;;;;12.15;7.15;;;;;;;8.75;89.35;99531.47;5057096;28;20040;-84
2021/05/16 06:01:43;;;;;;;11.70;6.65;;;;;;;8.71;89.61;99528.53;5060181;28;20075;-85
2021/05/16 06:04:17;;;;;;;10.20;6.32;;;;;;;8.88;89.38;99528.00;5058564;28;20049;-84
2021/05/16 06:06:50;;;;;;;11.25;6.50;;;;;;;8.80;88.95;99521.34;5057490;28;20045;-85
2021/05/16 06:09:23;;;;;;;11.65;6.63;;;;;;;8.84;89.38;99514.22;5062315;28;20047;-85
2021/05/16 06:11:55;;;;;;;8.57;6.18;;;;;;;9.12;87.63;99527.84;5076722;28;20505;-84
2021/05/16 06:14:29;;;;;;;11.65;6.55;;;;;;;9.16;87.77;99533.50;5053715;28;20052;-84
2021/05/16 06:17:02;;;;;;;12.20;6.97;;;;;;;9.13;89.35;99532.19;5055299;28;20489;-84
2021/05/16 06:19:36;;;;;;;10.00;6.82;;;;;;;9.00;88.53;99538.38;5063261;28;20040;-85
2021/05/16 06:22:13;;;;;;;11.43;6.90;;;;;;;9.14;89.31;99522.13;5057264;28;20051;-83
2021/05/16 06:24:46;;;;;;;10.48;6.30;;;;;;;9.18;88.33;99534.81;5058223;28;20037;-84
2021/05/16 06:27:13;;;;;;;;;;;;;;;9.26;88.66;99536.03;5071292;28;20140;-83
2021/05/16 06:29:47;;;;;;;9.32;6.47;;;;;;;9.32;88.82;99542.97;5064046;28;19921;-84
2021/05/16 06:32:20;;;;;;;10.30;7.10;;;;;;;9.32;88.17;99534.84;5077638;28;20057;-84
2021/05/16 06:34:52;;;;;;;13.70;8.48;;;;;;;9.56;87.99;99533.84;5061606;28;20508;-84
2021/05/16 06:37:25;;;;;;;11.45;7.50;;;;;;;9.86;88.12;99535.16;5057620;28;20052;-84
2021/05/16 06:39:53;;;;;;;;;;;;;;;9.98;88.39;99537.34;5073596;28;20049;-84
2021/05/16 06:42:21;;;;;;;;;;;;;;;9.93;87.94;99542.91;5059717;28;19921;-85
2021/05/16 06:44:54;;;;;;;13.57;7.63;;;;;;;10.14;87.48;99542.47;5074969;28;19935;-84
2021/05/16 06:47:29;;;;;;;11.48;7.90;;;;;;;10.09;86.73;99542.59;5069128;28;20049;-84
2021/05/16 06:49:57;;;;;;;9.52;7.20;;;;;;;10.11;87.18;99543.88;5071270;28;20075;-84
2021/05/16 06:52:30;;;;;;;14.98;7.88;;;;;;;10.14;88.25;99550.63;5052446;28;20436;-84
2021/05/16 06:55:03;;;;;;;11.75;7.70;;;;;;;10.01;87.98;99546.81;5057874;28;20051;-85
2021/05/16 06:57:35;;;;;;;11.43;7.85;;;;;;;9.88;87.29;99543.78;5060478;28;20044;-83
2021/05/16 07:00:11;;;;;;;9.32;7.70;;;;;;;9.79;87.88;99544.81;5053960;28;20049;-84
2021/05/16 07:02:44;;;;;;;12.55;7.72;;;;;;;9.58;88.12;99550.63;5064063;28;20539;-85
2021/05/16 07:05:17;;;;;;;11.52;8.23;;;;;;;9.30;88.65;99547.09;5057029;28;20045;-84
2021/05/16 07:07:45;;;;;;;12.55;7.47;;;;;;;9.28;88.99;99547.41;5064695;28;20048;-81
2021/05/16 07:10:19;;;;;;;11.82;8.18;;;;;;;9.26;90.02;99540.66;5052004;28;20045;-84
2021/05/16 07:12:51;;;;;;;16.05;8.75;;;;;;;9.19;90.20;99558.13;5069061;28;20389;-84
2021/05/16 07:15:27;;;;;;;11.15;7.45;;;;;;;9.22;89.39;99536.94;5065648;28;20053;-84
2021/05/16 07:17:59;;;;;;;13.43;8.27;;;;;;;9.18;89.57;99540.25;5058998;28;20733;-85
2021/05/16 07:20:32;;;;;;;13.88;8.15;;;;;;;9.38;89.34;99542.88;5063073;28;20053;-84
2021/05/16 07:23:05;;;;;;;13.77;9.80;;;;;;;9.52;90.17;99546.44;5060890;28;20047;-83
2021/05/16 07:25:38;;;;;;;18.13;11.48;;;;;;;9.69;90.46;99543.94;5072435;28;20048;-83
2021/05/16 07:28:10;;;;;;;14.45;10.15;;;;;;;9.87;89.52;99539.50;5065838;28;20047;-84
2021/05/16 07:30:45;;;;;;;14.50;10.00;;;;;;;10.01;89.60;99550.34;5061204;28;20059;-82
2021/05/16 07:33:17;;;;;;;15.93;10.50;;;;;;;9.88;89.45;99551.94;5080381;28;20049;-85
2021/05/16 07:35:50;;;;;;;14.40;10.55;;;;;;;10.13;87.87;99552.53;5060817;28;20053;-85
2021/05/16 07:38:23;;;;;;;17.58;12.13;;;;;;;10.21;88.90;99549.09;5082244;28;20063;-82
2021/05/16 07:40:56;;;;;;;17.20;12.25;;;;;;;10.40;88.92;99558.25;5061109;28;20040;-83
2021/05/16 07:43:29;;;;;;;18.60;12.38;;;;;;;10.68;88.39;99554.34;5063922;28;20044;-83
2021/05/16 07:46:04;;;;;;;18.85;13.85;;;;;;;10.59;87.93;99549.94;5080886;28;20515;-82
2021/05/16 07:48:37;;;;;;;17.60;11.73;;;;;;;10.66;87.47;99556.56;5055008;28;20497;-82
2021/05/16 07:51:09;;;;;;;20.17;12.75;;;;;;;10.70;88.01;99557.56;5059436;28;20350;-81
2021/05/16 07:53:38;;;;;;;;;;;;;;;10.58;87.92;99554.59;5060370;28;20052;-83
2021/05/16 07:56:07;;;;;;;18.20;13.27;;;;;;;10.64;87.95;99560.72;5063193;28;19924;-82
2021/05/16 07:58:42;;;;;;;20.10;14.63;;;;;;;10.91;88.81;99558.97;5063764;28;20060;-82
2021/05/16 08:01:16;;;;;;;20.58;13.90;;;;;;;10.92;88.09;99550.50;5066132;28;20052;-82
2021/05/16 08:03:48;;;;;;;21.60;13.18;;;;;;;11.00;87.61;99557.13;5058818;28;20049;-82
2021/05/16 08:06:21;;;;;;;20.65;13.15;;;;;;;10.94;86.83;99559.19;5056665;28;20056;-82
2021/05/16 08:08:54;;;;;;;21.00;14.38;;;;;;;10.94;87.34;99553.72;5059569;28;20396;-82
2021/05/16 08:11:34;;;;;;;17.95;13.02;;;;;;;10.83;87.03;99547.72;5060268;28;20056;-83
2021/05/16 08:14:02;;;;;;;21.63;12.82;;;;;;;10.72;87.55;99536.28;5060833;28;20043;-82
2021/05/16 08:16:36;;;;;;;19.92;13.18;;;;;;;11.00;87.15;99557.94;5059219;28;20044;-82
2021/05/16 08:19:10;;;;;;;23.92;15.25;;;;;;;11.64;87.02;99554.13;5057484;28;20056;-81
2021/05/16 08:21:45;;;;;;;23.65;15.65;;;;;;;12.02;87.06;99542.72;5056032;28;20480;-82
2021/05/16 08:24:18;;;;;;;22.83;14.48;;;;;;;11.87;84.86;99538.47;5058418;28;20040;-82
2021/05/16 08:26:51;;;;;;;17.13;12.10;;;;;;;11.81;83.36;99534.28;5066350;28;20052;-84
2021/05/16 08:29:23;;;;;;;20.40;14.48;;;;;;;11.83;85.56;99540.22;5056743;28;20049;-82
2021/05/16 08:31:57;;;;;;;18.90;12.35;;;;;;;11.53;84.39;99537.25;5078007;28;20044;-82
2021/05/16 08:34:32;;;;;;;18.23;11.30;;;;;;;11.50;83.09;99528.88;5056513;28;20048;-84
2021/05/16 08:37:07;;;;;;;15.35;10.98;;;;;;;11.37;84.62;99544.22;5062039;28;20056;-84
2021/05/16 08:39:42;;;;;;;18.00;11.95;;;;;;;11.32;85.40;99547.84;5060521;28;20045;-82
2021/05/16 08:42:17;;;;;;;20.05;14.00;;;;;;;11.20;85.80;99542.22;5052928;28;20772;-82
2021/05/16 08:44:49;;;;;;;18.17;12.80;;;;;;;11.14;85.86;99544.22;5075693;28;20473;-83
2021/05/16 08:47:25;;;;;;;16.67;12.95;;;;;;;11.14;86.00;99544.22;5065400;28;20504;-84
2021/05/16 08:49:57;;;;;;;16.98;12.38;;;;;;;11.32;86.19;99550.59;5060848;28;20051;-82
2021/05/16 08:52:30;;;;;;;18.48;12.00;;;;;;;11.29;86.84;99544.97;5055205;28;20052;-82
2021/05/16 08:55:04;;;;;;;16.02;11.30;;;;;;;11.39;84.71;99525.63;5057969;28;20056;-83
2021/05/16 08:57:37;;;;;;;16.55;12.27;;;;;;;11.61;86.01;99538.38;5055860;28;20037;-82
2021/05/16 09:00:15;;;;;;;18.48;12.10;;;;;;;11.90;85.03;99537.03;5062603;28;20405;-82
2021/05/16 09:03:05;;;;;;;18.48;11.95;;;;;;;12.42;83.90;99533.63;5054666;28;20047;-81
2021/05/16 09:05:37;;;;;;;18.60;11.63;;;;;;;12.80;82.89;99521.25;5056906;28;20048;-81
2021/05/16 09:08:13;;;;;;;20.05;11.00;;;;;;;12.96;82.77;99521.56;5055272;28;20064;-82
2021/05/16 09:10:49;;;;;;;18.00;11.45;;;;;;;13.15;81.45;99518.47;5059644;28;20056;-82
2021/05/16 09:13:24;;;;;;;15.77;10.10;;;;;;;13.33;79.74;99528.19;5054358;28;20500;-82
2021/05/16 09:16:00;;;;;;;18.50;11.32;;;;;;;13.24;81.01;99521.94;5061816;28;20052;-81
2021/05/16 09:18:42;;;;;;;24.33;9.52;;;;;;;13.55;79.23;99515.47;5056135;28;20057;-82
2021/05/16 09:21:28;;;;;;;17.30;9.27;;;;;;;12.91;79.67;99528.78;5056746;28;20041;-86
2021/05/16 09:24:13;;;;;;;13.15;8.13;;;;;;;12.49;76.20;99527.69;5077105;28;20381;-83
2021/05/16 09:26:52;;;;;;;14.93;9.63;;;;;;;12.29;80.07;99521.75;5074811;28;20056;-82
2021/05/16 09:29:29;;;;;;;16.92;9.32;;;;;;;12.17;81.34;99532.47;5059568;28;20045;-82
2021/05/16 09:32:03;;;;;;;15.43;9.57;;;;;;;11.77;81.79;99527.06;5056168;28;20040;-83
2021/05/16 09:34:39;;;;;;;14.70;9.60;;;;;;;11.80;82.45;99526.44;5062717;28;20052;-82
2021/05/16 09:37:14;;;;;;;15.88;10.13;;;;;;;11.80;82.17;99537.34;5061899;28;20041;-82
2021/05/16 09:39:45;;;;;;;14.20;8.73;;;;;;;11.70;79.08;99541.94;5075243;28;20048;-82
2021/05/16 09:42:18;;;;;;;15.63;9.10;;;;;;;11.66;81.21;99546.41;5059238;28;20041;-82
2021/05/16 09:44:54;;;;;;;13.43;9.07;;;;;;;11.87;80.51;99529.50;5062305;28;20040;-82
2021/05/16 09:47:28;;;;;;;11.85;7.97;;;;;;;12.47;78.73;99522.56;5057791;28;20043;-82
2021/05/16 09:50:03;;;;;;;10.30;5.40;;;;;;;12.59;71.86;99517.25;5061740;28;20056;-82
2021/05/16 09:52:37;;;;;;;9.98;6.50;;;;;;;12.25;74.33;99520.78;5057929;28;20049;-82
2021/05/16 09:55:12;;;;;;;13.55;7.60;;;;;;;11.88;75.83;99526.44;5066150;28;20041;-82
2021/05/16 09:57:46;;;;;;;12.82;7.25;;;;;;;11.87;75.46;99502.22;5064929;28;20507;-82
2021/05/16 10:00:21;;;;;;;22.55;7.65;;;;;;;12.57;77.40;99513.25;5060693;28;20053;-82
2021/05/16 10:02:54;;;;;;;14.73;7.60;;;;;;;12.58;75.49;99514.81;5054592;28;20055;-83
2021/05/16 10:05:29;;;;;;;13.93;7.90;;;;;;;12.46;78.87;99511.97;5073307;28;20051;-82
2021/05/16 10:08:02;;;;;;;13.02;8.13;;;;;;;12.24;76.64;99511.78;5054716;28;20053;-82
2021/05/16 10:10:36;;;;;;;14.20;7.88;;;;;;;12.15;80.34;99515.63;5058616;28;20049;-83
2021/05/16 10:13:09;;;;;;;14.90;8.40;;;;;;;12.17;79.97;99516.91;5062885;28;20045;-83
2021/05/16 10:15:43;;;;;;;16.00;8.73;;;;;;;12.44;80.76;99516.94;5057241;28;20119;-82
2021/05/16 10:18:18;;;;;;;14.90;9.05;;;;;;;12.73;80.46;99505.34;5072912;28;20051;-82
2021/05/16 10:20:54;;;;;;;14.20;8.35;;;;;;;13.12;76.47;99516.38;5072867;28;20496;-83
2021/05/16 10:23:32;;;;;;;12.32;7.90;;;;;;;13.17;74.65;99508.78;5059416;28;20067;-83
2021/05/16 10:26:29;;;;;;;12.43;7.72;;;;;;;13.20;77.55;99504.59;5059552;28;20060;-82
2021/05/16 10:29:05;;;;;;;11.00;6.55;;;;;;;12.97;75.25;99510.31;5049672;28;20512;-83
2021/05/16 10:32:01;;;;;;;13.75;6.63;;;;;;;12.54;75.83;99503.78;5059809;28;20040;-83
2021/05/16 10:34:43;;;;;;;12.05;5.88;;;;;;;12.40;76.41;99494.94;5055675;28;20057;-82
2021/05/16 10:37:37;;;;;;;12.05;6.70;;;;;;;12.42;76.20;99511.78;5059161;28;20397;-81
2021/05/16 10:40:21;;;;;;;14.25;7.88;;;;;;;12.08;79.48;99516.09;5053684;28;20049;-83
2021/05/16 10:42:56;;;;;;;12.80;7.88;;;;;;;12.12;77.50;99503.41;5060975;28;20049;-83
2021/05/16 10:45:35;;;;;;;18.98;9.38;;;;;;;12.24;81.26;99505.53;5061192;28;20060;-83
2021/05/16 10:48:11;;;;;;;19.35;8.88;;;;;;;12.34;81.07;99512.59;5058291;28;20044;-83
2021/05/16 10:50:59;;;;;;;14.98;8.10;;;;;;;12.55;78.21;99510.03;5060146;28;20052;-83
2021/05/16 10:53:40;;;;;;;14.75;8.40;;;;;;;12.77;79.06;99506.31;5082030;28;20653;-83
2021/05/16 10:56:13;;;;;;;15.95;8.82;;;;;;;12.81;78.56;99522.84;5059338;28;20040;-83
2021/05/16 10:58:55;;;;;;;14.60;8.10;;;;;;;13.29;78.59;99521.78;5066250;28;20047;-83
2021/05/16 11:01:33;;;;;;;15.45;8.13;;;;;;;13.86;74.59;99517.84;5057107;28;20465;-83
2021/05/16 11:04:06;;;;;;;14.23;6.90;;;;;;;13.38;76.19;99508.13;5066863;28;20048;-83
2021/05/16 11:06:59;;;;;;;12.93;6.72;;;;;;;12.98;77.29;99505.63;5057937;28;20401;-82
2021/05/16 11:09:38;;;;;;;7.85;3.90;;;;;;;12.79;72.70;99514.16;5061252;28;20033;-82
2021/05/16 11:12:10;;;;;;;6.32;3.30;;;;;;;12.48;71.27;99515.97;5065938;28;20041;-83
2021/05/16 11:14:43;;;;;;;8.02;3.30;;;;;;;12.22;72.10;99521.41;5060022;28;20041;-83
2021/05/16 11:17:18;;;;;;;8.90;3.40;;;;;;;11.82;74.39;99516.00;5061759;28;20041;-84
2021/05/16 11:19:53;;;;;;;5.38;2.70;;;;;;;11.46;72.40;99527.91;5081545;28;20052;-83
2021/05/16 11:22:26;;;;;;;5.82;2.90;;;;;;;11.10;74.50;99529.63;5061219;28;20036;-82
2021/05/16 11:25:00;;;;;;;6.35;3.17;;;;;;;11.00;77.78;99533.41;5068684;28;20061;-82
2021/05/16 11:27:30;;;;;;;8.27;3.38;;;;;;;10.82;79.19;99537.16;5059798;28;20052;-83
2021/05/16 11:30:08;;;;;;;7.90;3.58;;;;;;;10.85;80.65;99523.75;5060421;28;20416;-83
2021/05/16 11:32:42;;;;;;;9.02;3.55;;;;;;;11.05;80.80;99530.59;5072463;28;20056;-83
2021/05/16 11:35:18;;;;;;;7.18;3.20;;;;;;;11.19;79.32;99521.53;5074951;28;20477;-83
2021/05/16 11:37:55;;;;;;;7.05;3.10;;;;;;;11.49;80.84;99524.53;5075447;28;20068;-82
2021/05/16 11:40:31;;;;;;;;;;;;;;;12.22;81.41;99521.41;5056804;28;20511;-84
2021/05/16 11:43:09;;;;;;;6.50;2.60;;;;;;;12.86;79.51;99519.97;5057437;28;20377;-83
2021/05/16 11:45:43;;;;;;;6.47;3.10;;;;;;;13.03;76.50;99519.91;5055682;28;20050;-83
2021/05/16 11:48:30;;;;;;;5.25;2.42;;;;;;;13.18;75.88;99524.06;5062661;28;20053;-82
2021/05/16 11:51:08;;;;;;;4.57;2.30;;;;;;;13.47;76.28;99516.28;5071462;28;20067;-83
2021/05/16 11:53:43;;;;;;;9.02;3.20;;;;;;;13.39;77.18;99515.97;5058594;28;20504;-83
2021/05/16 11:56:20;;;;;;;6.55;2.65;;;;;;;13.07;76.93;99514.63;5070563;28;20044;-82
2021/05/16 11:58:50;;;;;;;7.32;3.05;;;;;;;12.64;77.47;99519.00;5062663;28;20413;-83
2021/05/16 12:01:25;;;;;;;5.45;2.50;;;;;;;12.11;75.13;99510.03;5065086;28;20512;-82
2021/05/16 12:04:00;;;;;;;8.60;2.60;;;;;;;11.91;75.14;99525.00;5055373;28;20049;-82